Información del aeropuerto LEZL

Información de pista
Pista 09 Longitud 11024 ft Anchura 148 ft
Elevación 83 ft Umbral 0 ft Rumbo 90
Pista 27 Longitud 11024 ft Anchura 148 ft
Elevación 111 ft Umbral 0 ft Rumbo 270
Frecuencias del aeropuerto
Tipo APP Nombre APP Frecuencia 120 MHZ
Tipo ATIS Nombre ATIS Frecuencia 118.175 MHZ
Tipo GND Nombre GND Frecuencia 121.7 MHZ
Tipo TWR Nombre TWR Frecuencia 118.1 MHZ
Radioayudas del aeropuerto
Tipo NDB Nombre Sevilla Frecuencia 420 KHZ
Tipo VOR-DME Nombre Sevilla Frecuencia 113700 KHZ
Información meteorológica del aeropuerto y NOTAM
ADDS - METARS form results

(1016 UTC 19 April 2021)
Data provider http://aviationweather.gov/metar/data/
 
METAR text: LEZL 191000Z 30003KT 230V020 CAVOK 18/10 Q1019 NOSIG
Conditions at: LEZL (SEVILLA (CIV/MIL, ES) observed 1000 UTC 19 April 2021
Temperature: 18.0°C (64°F)
Dewpoint: 10.0°C (50°F) [RH = 59%]
Pressure (altimeter): 30.09 inches Hg (1019.0 mb)
Winds: from the WNW (300 degrees) at 3 MPH (3 knots; 1.5 m/s)
Visibility: 6 or more miles (10+ km)
Ceiling: ceiling and visibility are OK
Clouds: unknown
Weather: no significant weather observed at this time

METAR text: LEZL 190930Z 32003KT 250V040 CAVOK 17/11 Q1019 NOSIG
Conditions at: LEZL (SEVILLA (CIV/MIL, ES) observed 0930 UTC 19 April 2021
Temperature: 17.0°C (63°F)
Dewpoint: 11.0°C (52°F) [RH = 68%]
Pressure (altimeter): 30.09 inches Hg (1019.0 mb)
Winds: from the NW (320 degrees) at 3 MPH (3 knots; 1.5 m/s)
Visibility: 6 or more miles (10+ km)
Ceiling: ceiling and visibility are OK
Clouds: unknown
Weather: no significant weather observed at this time

Forecast for: LEZL (SEVILLA (CIV/MIL, ES)
Text: TAF LEZL 190800Z 1909/2009 VRB02KT CAVOK TX26/1914Z TN12/2006Z
Forecast period: 0900 to 1200 UTC 19 April 2021
Forecast type: FROM: standard forecast or significant change
Winds: variable direction winds at 2 MPH (2 knots; 1.0 m/s)
Visibility: 6 or more miles (10+ km)
Ceiling: unknown
Clouds: missing
Weather: no significant weather forecast for this period
Text: BECMG 1912/1914 24010KT
Forecast period: 1200 to 2000 UTC 19 April 2021
Forecast type: BECOMING: Conditions expected to become as follows by 1400 UTC 19 April 2021
Winds: from the WSW (240 degrees) at 12 MPH (10 knots; 5.1 m/s)
Visibility: 6 or more miles (10+ km)
Ceiling: unknown
Clouds: missing
Weather: no significant weather forecast for this period
Text: BECMG 1920/1922 VRB02KT
Forecast period: 2000 UTC 19 April 2021 to 0900 UTC 20 April 2021
Forecast type: BECOMING: Conditions expected to become as follows by 2200 UTC 19 April 2021
Winds: variable direction winds at 2 MPH (2 knots; 1.0 m/s)
Visibility: 6 or more miles (10+ km)
Ceiling: unknown
Clouds: missing
Weather: no significant weather forecast for this period